createdAt,value
2019-04-05T00:04:05.751Z,12.40
2019-04-05T00:09:11.831Z,12.37
2019-04-05T00:14:19.837Z,12.19
2019-04-05T00:19:31.824Z,12.28
2019-04-05T00:24:39.645Z,12.25
2019-04-05T00:29:45.495Z,12.24
2019-04-05T00:34:56.870Z,12.19
2019-04-05T00:40:26.340Z,12.12
2019-04-05T00:45:35.517Z,12.09
2019-04-05T00:50:41.303Z,12.13
2019-04-05T00:55:48.653Z,11.98
2019-04-05T01:00:54.483Z,11.95
2019-04-05T01:06:00.301Z,11.84
2019-04-05T01:11:06.257Z,11.71
2019-04-05T01:16:13.653Z,11.83
2019-04-05T01:21:22.502Z,11.77
2019-04-05T01:26:29.485Z,11.70
2019-04-05T01:31:35.371Z,11.68
2019-04-05T01:36:41.342Z,11.69
2019-04-05T01:41:47.879Z,11.61
2019-04-05T01:46:53.791Z,11.70
2019-04-05T01:52:00.913Z,11.64
2019-04-05T01:57:06.683Z,11.57
2019-04-05T02:02:12.474Z,11.53
2019-04-05T02:07:18.205Z,11.46
2019-04-05T02:12:23.972Z,11.51
2019-04-05T02:17:29.730Z,11.35
2019-04-05T02:22:35.500Z,11.42
2019-04-05T02:27:41.288Z,11.14
2019-04-05T02:32:47.152Z,11.17
2019-04-05T02:37:53.018Z,11.12
2019-04-05T02:43:01.253Z,11.21
2019-04-05T02:48:09.944Z,11.04
2019-04-05T02:53:18.902Z,10.98
2019-04-05T02:58:25.268Z,10.97
2019-04-05T03:03:31.274Z,10.98
2019-04-05T03:08:39.449Z,11.09
2019-04-05T03:13:48.106Z,11.12
2019-04-05T03:18:59.654Z,11.01
2019-04-05T03:24:06.232Z,11.04
2019-04-05T03:29:12.831Z,11.01
2019-04-05T03:34:18.733Z,10.87
2019-04-05T03:39:25.174Z,10.45
2019-04-05T03:44:31.081Z,10.29
2019-04-05T03:49:36.978Z,10.22
2019-04-05T03:54:42.851Z,10.15
2019-04-05T03:59:48.634Z,10.05
2019-04-05T04:04:55.066Z,9.85
2019-04-05T04:10:00.924Z,9.96
2019-04-05T04:15:14.615Z,9.93
2019-04-05T04:20:38.560Z,9.86
2019-04-05T04:25:44.727Z,9.79
2019-04-05T04:30:50.845Z,9.92
2019-04-05T04:35:56.700Z,9.93
2019-04-05T04:41:03.211Z,9.86
2019-04-05T04:46:08.882Z,9.98
2019-04-05T04:51:14.798Z,10.10
2019-04-05T04:56:20.884Z,10.35
2019-04-05T05:01:26.690Z,10.49
2019-04-05T05:06:32.582Z,10.38
2019-04-05T05:11:38.457Z,10.69
2019-04-05T05:16:45.695Z,10.70
2019-04-05T05:21:51.563Z,10.90
2019-04-05T05:26:57.839Z,10.86
2019-04-05T05:32:04.190Z,10.99
2019-04-05T05:37:09.997Z,11.07
2019-04-05T05:42:15.954Z,11.12
2019-04-05T05:47:21.931Z,11.19
2019-04-05T05:52:27.974Z,11.23
2019-04-05T05:57:34.047Z,11.31
2019-04-05T06:02:40.365Z,11.42
2019-04-05T06:07:46.621Z,11.63
2019-04-05T06:12:52.569Z,11.70
2019-04-05T06:18:04.683Z,11.81
2019-04-05T06:23:06.149Z,12.07
2019-04-05T06:28:12.053Z,12.26
2019-04-05T06:33:30.696Z,12.31
2019-04-05T06:38:25.765Z,12.29
2019-04-05T06:43:31.655Z,12.23
2019-04-05T06:48:37.544Z,12.50
2019-04-05T06:53:43.522Z,12.55
2019-04-05T06:58:49.382Z,12.98
2019-04-05T07:03:55.443Z,13.29
2019-04-05T07:09:01.852Z,13.52
2019-04-05T07:14:08.367Z,13.64
2019-04-05T07:19:14.509Z,13.89
2019-04-05T07:24:20.590Z,14.02
2019-04-05T07:29:26.468Z,14.29
2019-04-05T07:34:32.326Z,14.44
2019-04-05T07:39:38.198Z,14.57
2019-04-05T07:44:44.113Z,14.62
2019-04-05T07:49:50.557Z,14.88
2019-04-05T07:54:56.625Z,15.19
2019-04-05T08:00:02.503Z,15.19
2019-04-05T08:05:09.033Z,15.56
2019-04-05T08:10:16.261Z,15.57
2019-04-05T08:15:22.126Z,15.68
2019-04-05T08:20:28.147Z,15.75
2019-04-05T08:25:34.008Z,16.21
2019-04-05T08:30:39.946Z,16.31
2019-04-05T08:35:45.965Z,16.29
2019-04-05T08:40:51.850Z,16.79
2019-04-05T08:45:57.916Z,16.78
2019-04-05T08:51:03.887Z,16.58
2019-04-05T08:56:09.643Z,16.73
2019-04-05T09:01:15.617Z,16.72
2019-04-05T09:06:22.623Z,16.70
2019-04-05T09:11:28.521Z,16.97
2019-04-05T09:16:34.504Z,17.38
2019-04-05T09:21:40.774Z,17.01
2019-04-05T09:26:46.822Z,17.56
2019-04-05T09:31:52.684Z,17.88
2019-04-05T09:36:58.558Z,17.53
2019-04-05T09:42:04.426Z,17.98
2019-04-05T09:47:10.624Z,17.80
2019-04-05T09:52:16.594Z,18.09
2019-04-05T09:57:22.346Z,18.10
2019-04-05T10:02:28.109Z,18.27
2019-04-05T10:07:33.900Z,18.49
2019-04-05T10:12:39.907Z,18.28
2019-04-05T10:17:45.843Z,18.69
2019-04-05T10:22:51.732Z,18.74
2019-04-05T10:27:57.726Z,19.08
2019-04-05T10:33:04.030Z,19.16
2019-04-05T10:38:10.032Z,19.28
2019-04-05T10:43:16.143Z,19.13
2019-04-05T10:48:22.126Z,19.29
2019-04-05T10:53:28.095Z,19.40
2019-04-05T10:58:34.101Z,19.57
2019-04-05T11:03:39.882Z,19.89
2019-04-05T11:08:45.657Z,19.84
2019-04-05T11:13:51.372Z,19.76
2019-04-05T11:18:57.194Z,20.19
2019-04-05T11:24:03.014Z,20.27
2019-04-05T11:29:08.783Z,20.39
2019-04-05T11:34:14.841Z,20.37
2019-04-05T11:39:21.209Z,20.70
2019-04-05T11:44:28.433Z,20.76
2019-04-05T11:49:37.255Z,21.21
2019-04-05T11:54:43.803Z,20.63
2019-04-05T11:59:50.623Z,21.03
2019-04-05T12:04:58.156Z,21.15
2019-04-05T12:10:04.824Z,21.46
2019-04-05T12:15:11.296Z,21.05
2019-04-05T12:20:17.868Z,21.38
2019-04-05T12:25:23.884Z,21.45
2019-04-05T12:30:29.764Z,21.33
2019-04-05T12:35:37.701Z,21.36
2019-04-05T12:40:44.223Z,21.65
2019-04-05T12:45:50.092Z,21.61
2019-04-05T12:51:01.476Z,22.03
2019-04-05T12:56:06.762Z,21.90
2019-04-05T13:01:12.950Z,22.02
2019-04-05T13:06:19.809Z,21.93
2019-04-05T13:11:27.034Z,22.19
2019-04-05T13:16:33.167Z,22.33
2019-04-05T13:21:39.015Z,22.20
2019-04-05T13:26:44.912Z,22.79
2019-04-05T13:31:50.889Z,22.22
2019-04-05T13:36:56.735Z,22.85
2019-04-05T13:42:02.704Z,22.74
2019-04-05T13:47:09.139Z,22.94
2019-04-05T13:52:15.025Z,22.74
2019-04-05T13:57:20.766Z,23.22
2019-04-05T14:02:26.739Z,23.65
2019-04-05T14:07:34.244Z,23.88
2019-04-05T14:12:41.004Z,23.50
2019-04-05T14:17:49.408Z,23.38
2019-04-05T14:22:55.439Z,24.27
2019-04-05T14:28:04.287Z,24.03
2019-04-05T14:33:10.143Z,23.83
2019-04-05T14:38:16.266Z,23.84
2019-04-05T14:43:22.174Z,23.67
2019-04-05T14:48:31.683Z,23.56
2019-04-05T14:53:36.674Z,23.91
2019-04-05T14:58:42.474Z,23.75
2019-04-05T15:03:48.828Z,24.13
2019-04-05T15:08:54.622Z,23.59
2019-04-05T15:14:02.228Z,23.44
2019-04-05T15:19:08.399Z,24.10
2019-04-05T15:24:16.807Z,23.93
2019-04-05T15:29:23.660Z,23.89
2019-04-05T15:34:30.589Z,23.83
2019-04-05T15:39:36.478Z,24.14
2019-04-05T15:44:42.699Z,24.12
2019-04-05T15:49:51.548Z,23.96
2019-04-05T15:55:08.737Z,23.87
2019-04-05T16:00:21.526Z,23.18
2019-04-05T16:05:27.351Z,24.07
2019-04-05T16:10:33.531Z,23.81
2019-04-05T16:15:39.407Z,23.59
2019-04-05T16:20:45.398Z,23.76
2019-04-05T16:25:51.350Z,24.24
2019-04-05T16:30:57.312Z,24.34
2019-04-05T16:36:03.345Z,23.41
2019-04-05T16:41:09.528Z,23.15
2019-04-05T16:46:15.947Z,22.33
2019-04-05T16:51:22.239Z,22.14
2019-04-05T16:56:28.616Z,21.80
2019-04-05T17:01:35.511Z,21.61
2019-04-05T17:06:41.696Z,21.41
2019-04-05T17:11:47.561Z,21.12
2019-04-05T17:16:53.542Z,21.16
2019-04-05T17:21:59.710Z,20.92
2019-04-05T17:27:05.584Z,20.61
2019-04-05T17:32:11.444Z,20.58
2019-04-05T17:37:18.441Z,20.37
2019-04-05T17:42:24.425Z,19.99
2019-04-05T17:47:30.405Z,19.67
2019-04-05T17:52:36.371Z,19.61
2019-04-05T17:57:43.425Z,19.46
2019-04-05T18:02:49.543Z,19.57
2019-04-05T18:07:55.725Z,19.15
2019-04-05T18:13:01.616Z,18.93
2019-04-05T18:18:07.612Z,18.86
2019-04-05T18:23:24.372Z,18.84
2019-04-05T18:28:21.188Z,18.76
2019-04-05T18:33:27.137Z,18.30
2019-04-05T18:38:33.147Z,18.24
2019-04-05T18:43:39.169Z,18.12
2019-04-05T18:48:45.107Z,17.98
2019-04-05T18:53:52.674Z,17.73
2019-04-05T18:58:58.776Z,17.77
2019-04-05T19:04:05.832Z,17.64
2019-04-05T19:09:12.224Z,17.82
2019-04-05T19:14:18.414Z,17.92
2019-04-05T19:19:24.450Z,17.90
2019-04-05T19:24:30.717Z,17.81
2019-04-05T19:29:36.640Z,17.78
2019-04-05T19:50:06.560Z,17.69
2019-04-05T19:55:12.637Z,17.82
2019-04-05T20:00:19.526Z,17.84
2019-04-05T20:05:25.730Z,17.88
2019-04-05T20:10:31.998Z,17.85
2019-04-05T20:15:37.841Z,17.88
2019-04-05T20:20:43.725Z,17.76
2019-04-05T20:25:49.513Z,17.79
2019-04-05T20:30:55.364Z,17.82
2019-04-05T20:36:01.222Z,17.74
2019-04-05T20:41:07.082Z,17.65
2019-04-05T20:46:13.244Z,17.48
2019-04-05T20:51:19.111Z,17.46
2019-04-05T20:56:24.906Z,17.39
2019-04-05T21:01:30.692Z,17.25
2019-04-05T21:06:36.466Z,17.22
2019-04-05T21:11:42.261Z,17.07
2019-04-05T21:16:48.075Z,16.86
2019-04-05T21:21:53.864Z,16.64
2019-04-05T21:26:59.654Z,16.85
2019-04-05T21:32:05.427Z,16.52
2019-04-05T21:37:11.205Z,16.38
2019-04-05T21:42:18.686Z,16.18
2019-04-05T21:47:24.481Z,16.02
2019-04-05T21:52:30.320Z,16.00
2019-04-05T21:57:37.348Z,15.72
2019-04-05T22:02:43.472Z,15.39
2019-04-05T22:07:51.453Z,15.31
2019-04-05T22:12:56.899Z,15.27
2019-04-05T22:18:02.716Z,15.27
2019-04-05T22:23:08.469Z,15.10
2019-04-05T22:28:14.263Z,15.10
2019-04-05T22:33:19.957Z,14.89
2019-04-05T22:38:25.804Z,14.79
2019-04-05T22:43:31.603Z,14.83
2019-04-05T22:48:37.394Z,14.77
2019-04-05T22:53:43.000Z,14.69
2019-04-05T22:58:48.779Z,14.58
2019-04-05T23:03:54.689Z,14.58
2019-04-05T23:09:00.480Z,14.54
2019-04-05T23:14:07.867Z,14.50
2019-04-05T23:19:13.653Z,14.49
2019-04-05T23:24:19.478Z,14.40
2019-04-05T23:29:25.178Z,14.42
2019-04-05T23:34:30.979Z,14.51
2019-04-05T23:39:36.832Z,14.56
2019-04-05T23:44:42.857Z,14.59
2019-04-05T23:49:48.779Z,14.57
2019-04-05T23:54:54.750Z,14.59
